createdAt,value
2022-08-25T00:00:03.093Z,72.93
2022-08-25T00:01:03.383Z,73.63
2022-08-25T00:02:03.696Z,73.33
2022-08-25T00:03:04.019Z,73.33
2022-08-25T00:04:04.157Z,73.03
2022-08-25T00:05:04.492Z,73.13
2022-08-25T00:06:04.734Z,72.93
2022-08-25T00:07:05.052Z,72.83
2022-08-25T00:08:05.592Z,73.03
2022-08-25T00:09:05.574Z,73.63
2022-08-25T00:10:05.862Z,73.63
2022-08-25T00:11:06.136Z,72.97
2022-08-25T00:12:06.436Z,73.16
2022-08-25T00:13:06.718Z,72.97
2022-08-25T00:14:07.013Z,73.16
2022-08-25T00:15:07.295Z,73.16
2022-08-25T00:16:07.655Z,73.36
2022-08-25T00:17:07.911Z,73.16
2022-08-25T00:18:19.755Z,73.36
2022-08-25T00:19:09.496Z,73.36
2022-08-25T00:20:08.833Z,74.27
2022-08-25T00:21:09.107Z,73.27
2022-08-25T00:22:09.445Z,74.07
2022-08-25T00:23:09.743Z,74.77
2022-08-25T00:24:10.036Z,74.57
2022-08-25T00:25:10.316Z,73.97
2022-08-25T00:26:10.603Z,73.83
2022-08-25T00:27:10.902Z,73.33
2022-08-25T00:28:11.335Z,73.03
2022-08-25T00:29:11.504Z,73.13
2022-08-25T00:30:11.822Z,73.13
2022-08-25T00:31:12.198Z,73.73
2022-08-25T00:32:12.400Z,73.23
2022-08-25T00:33:12.729Z,73.43
2022-08-25T00:34:13.007Z,72.83
2022-08-25T00:35:13.286Z,72.63
2022-08-25T00:36:17.333Z,72.77
2022-08-25T00:37:13.950Z,73.07
2022-08-25T00:38:14.279Z,73.07
2022-08-25T00:39:14.567Z,73.07
2022-08-25T00:40:14.903Z,73.47
2022-08-25T00:41:15.147Z,73.60
2022-08-25T00:42:16.006Z,73.90
2022-08-25T00:43:15.785Z,74.01
2022-08-25T00:44:16.074Z,74.01
2022-08-25T00:45:16.373Z,73.80
2022-08-25T00:46:16.714Z,74.51
2022-08-25T00:47:16.924Z,73.70
2022-08-25T00:48:17.197Z,73.80
2022-08-25T00:49:24.720Z,73.60
2022-08-25T00:50:18.778Z,73.90
2022-08-25T00:51:18.007Z,74.20
2022-08-25T00:52:18.316Z,74.20
2022-08-25T02:56:20.723Z,78.54
2022-08-25T02:57:21.034Z,78.34
2022-08-25T02:58:21.358Z,78.23
2022-08-25T02:59:21.652Z,78.44
2022-08-25T03:00:21.954Z,78.64
2022-08-25T03:01:22.291Z,78.64
2022-08-25T03:02:23.550Z,78.74
2022-08-25T03:03:22.781Z,78.54
2022-08-25T03:04:23.088Z,78.74
2022-08-25T03:05:23.392Z,78.74
2022-08-25T03:06:23.698Z,79.04
2022-08-25T03:07:24.785Z,78.44
2022-08-25T03:08:24.329Z,78.64
2022-08-25T03:09:24.618Z,78.44
2022-08-25T03:10:24.906Z,78.23
2022-08-25T03:11:25.184Z,78.44
2022-08-25T03:12:25.513Z,78.64
2022-08-25T03:13:25.806Z,78.64
2022-08-25T03:14:26.100Z,78.44
2022-08-25T03:15:26.373Z,78.23
2022-08-25T03:16:27.851Z,78.23
2022-08-25T03:17:26.843Z,78.23
2022-08-25T03:18:27.102Z,78.34
2022-08-25T03:19:27.356Z,78.03
2022-08-25T03:20:27.644Z,78.34
2022-08-25T03:21:27.978Z,78.44
2022-08-25T03:22:28.276Z,78.44
2022-08-25T03:23:28.565Z,78.34
2022-08-25T03:24:28.863Z,78.58
2022-08-25T03:25:29.138Z,78.47
2022-08-25T03:26:29.437Z,78.98
2022-08-25T03:27:29.724Z,78.98
2022-08-25T03:28:30.301Z,78.74
2022-08-25T03:29:30.256Z,78.54
2022-08-25T03:30:30.529Z,78.64
2022-08-25T03:31:30.881Z,78.34
2022-08-25T03:32:31.057Z,78.23
2022-08-25T03:33:31.351Z,78.03
2022-08-25T03:34:31.667Z,78.03
2022-08-25T03:35:32.016Z,78.03
2022-08-25T03:36:32.219Z,78.03
2022-08-25T03:37:32.493Z,78.14
2022-08-25T03:38:32.817Z,78.44
2022-08-25T03:39:33.116Z,78.44
2022-08-25T03:40:33.498Z,78.23
2022-08-25T03:41:33.717Z,78.34
2022-08-25T03:42:33.980Z,78.03
2022-08-25T03:43:34.305Z,78.23
2022-08-25T03:44:34.517Z,78.14
2022-08-25T03:45:34.837Z,77.94
2022-08-25T03:46:35.045Z,77.73
2022-08-25T03:47:35.317Z,78.23
2022-08-25T03:48:35.586Z,77.94
2022-08-25T03:49:35.894Z,77.97
2022-08-25T03:50:36.173Z,78.58
2022-08-25T03:51:36.449Z,78.88
2022-08-25T03:52:41.694Z,78.88
2022-08-25T03:53:38.016Z,78.67
2022-08-25T03:54:37.400Z,78.67
2022-08-25T03:55:37.695Z,78.67
2022-08-25T03:56:37.973Z,78.81
2022-08-25T03:57:38.270Z,79.11
2022-08-25T03:58:38.561Z,78.91
2022-08-25T03:59:38.850Z,78.91
2022-08-25T04:00:39.123Z,79.32
2022-08-25T04:01:39.428Z,79.32
2022-08-25T04:02:39.764Z,79.52
2022-08-25T04:03:39.927Z,79.72
2022-08-25T04:04:40.217Z,79.32
2022-08-25T04:05:40.505Z,79.32
2022-08-25T04:06:40.802Z,79.42
2022-08-25T04:07:41.136Z,79.22
2022-08-25T04:08:41.426Z,79.42
2022-08-25T04:09:41.704Z,79.46
2022-08-25T04:10:41.980Z,79.66
2022-08-25T04:11:42.679Z,79.96
2022-08-25T04:12:42.544Z,80.16
2022-08-25T04:13:42.855Z,79.86
2022-08-25T04:14:43.146Z,79.72
2022-08-25T04:15:43.425Z,79.66
2022-08-25T04:16:43.781Z,79.96
2022-08-25T04:17:44.027Z,79.76
2022-08-25T04:18:44.300Z,79.96
2022-08-25T04:19:44.593Z,79.96
2022-08-25T04:20:46.870Z,79.86
2022-08-25T04:21:45.160Z,80.06
2022-08-25T04:22:45.484Z,80.06
2022-08-25T04:23:45.778Z,79.86
2022-08-25T04:24:46.046Z,79.76
2022-08-25T04:25:46.390Z,79.92
2022-08-25T04:26:46.629Z,79.76
2022-08-25T04:27:46.809Z,79.86
2022-08-25T04:28:47.114Z,79.66
2022-08-25T04:29:47.423Z,79.86
2022-08-25T04:30:51.867Z,79.56
2022-08-25T04:31:48.800Z,79.42
2022-08-25T04:32:48.315Z,79.42
2022-08-25T04:33:48.627Z,79.46
2022-08-25T04:34:48.923Z,79.96
2022-08-25T04:35:49.234Z,79.96
2022-08-25T04:36:51.209Z,80.16
2022-08-25T04:37:49.847Z,80.36
2022-08-25T04:38:50.134Z,80.26
2022-08-25T04:39:50.538Z,80.26
2022-08-25T04:40:50.758Z,80.60
2022-08-25T04:41:51.051Z,80.70
2022-08-25T04:42:51.334Z,81.21
2022-08-25T04:43:51.613Z,81.21
2022-08-25T04:44:51.956Z,81.10
2022-08-25T04:45:52.364Z,81.21
2022-08-25T04:46:52.543Z,81.61
2022-08-25T04:47:54.981Z,81.91
2022-08-25T04:48:53.115Z,81.65
2022-08-25T04:49:53.444Z,81.75
2022-08-25T04:50:53.632Z,81.45
2022-08-25T04:51:53.940Z,81.61
2022-08-25T04:52:54.259Z,81.71
2022-08-25T04:53:54.555Z,81.41
2022-08-25T04:54:54.882Z,81.41
2022-08-25T04:55:55.206Z,81.30
2022-08-25T04:56:58.074Z,80.90
2022-08-25T04:57:55.839Z,80.77
2022-08-25T04:58:56.136Z,80.57
2022-08-25T04:59:56.410Z,80.16
2022-08-25T05:00:56.808Z,79.96
2022-08-25T05:01:57.047Z,80.06
2022-08-25T05:02:57.231Z,79.96
2022-08-25T05:03:57.542Z,79.76
2022-08-25T05:04:57.847Z,79.82
2022-08-25T05:05:58.166Z,79.62
2022-08-25T05:06:58.459Z,79.62
2022-08-25T05:07:58.746Z,79.52
2022-08-25T05:08:59.074Z,79.42
2022-08-25T05:09:59.380Z,79.52
2022-08-25T05:10:59.664Z,79.32
2022-08-25T05:11:59.927Z,79.02
2022-08-25T05:13:00.200Z,79.02
2022-08-25T05:14:00.499Z,79.52
2022-08-25T05:15:00.828Z,79.52
2022-08-25T05:16:01.207Z,79.72
2022-08-25T05:17:01.417Z,79.82
2022-08-25T05:18:01.688Z,79.62
2022-08-25T05:19:01.957Z,79.72
2022-08-25T05:20:02.260Z,80.22
2022-08-25T05:21:02.555Z,80.12
2022-08-25T05:22:02.877Z,80.06
2022-08-25T05:23:03.170Z,80.12
2022-08-25T05:24:03.465Z,80.02
2022-08-25T05:25:03.737Z,80.02
2022-08-25T05:26:04.011Z,80.12
2022-08-25T05:27:04.330Z,80.12
2022-08-25T05:28:04.860Z,80.22
2022-08-25T05:29:04.911Z,80.43
2022-08-25T05:30:05.211Z,80.52
2022-08-25T05:31:05.534Z,80.63
2022-08-25T05:32:05.915Z,80.73
2022-08-25T05:33:06.082Z,80.73
2022-08-25T05:34:06.397Z,80.73
2022-08-25T05:35:06.701Z,80.63
2022-08-25T05:36:06.971Z,80.99
2022-08-25T05:37:11.564Z,80.99
2022-08-25T05:38:07.610Z,81.09
2022-08-25T05:39:08.916Z,81.09
2022-08-25T05:40:08.172Z,81.19
2022-08-25T05:41:08.368Z,81.39
2022-08-25T05:42:08.652Z,81.59
2022-08-25T05:43:08.942Z,81.70
2022-08-25T05:44:09.269Z,82.10
2022-08-25T05:45:09.568Z,81.90
2022-08-25T05:46:09.913Z,82.10
2022-08-25T05:47:10.130Z,82.30
2022-08-25T05:48:10.398Z,82.40
2022-08-25T05:49:10.681Z,82.56
2022-08-25T05:50:11.001Z,82.36
2022-08-25T05:51:11.303Z,82.36
2022-08-25T05:52:14.301Z,82.06
2022-08-25T05:53:12.910Z,81.92
2022-08-25T05:54:12.265Z,81.82
2022-08-25T05:55:12.554Z,81.72
2022-08-25T05:56:12.826Z,81.41
2022-08-25T05:57:13.151Z,81.38
2022-08-25T05:58:14.202Z,81.18
2022-08-25T05:59:13.666Z,81.07
2022-08-25T06:00:13.966Z,80.77
2022-08-25T06:01:14.367Z,80.98
2022-08-25T06:02:14.602Z,80.74
2022-08-25T06:03:14.914Z,80.63
2022-08-25T06:04:15.170Z,80.24
2022-08-25T06:05:15.458Z,80.33
2022-08-25T06:06:15.768Z,80.33
2022-08-25T06:07:16.015Z,80.10
2022-08-25T06:08:16.309Z,79.99
2022-08-25T06:09:16.639Z,79.49
2022-08-25T06:10:16.980Z,79.39
2022-08-25T06:11:17.159Z,79.39
2022-08-25T06:12:17.456Z,79.25
2022-08-25T06:13:17.746Z,78.75
2022-08-25T06:14:18.059Z,78.85
2022-08-25T06:15:18.386Z,78.75
2022-08-25T06:16:18.751Z,78.61
2022-08-25T06:17:18.973Z,78.31
2022-08-25T06:18:19.274Z,77.85
2022-08-25T06:19:19.554Z,78.96
2022-08-25T06:20:19.872Z,78.81
2022-08-25T06:21:20.085Z,78.31
2022-08-25T06:22:20.383Z,78.22
2022-08-25T06:23:20.647Z,78.11
2022-08-25T06:24:20.929Z,77.67
2022-08-25T06:25:21.253Z,77.58
2022-08-25T06:26:21.749Z,77.37
2022-08-25T06:27:21.807Z,77.37
2022-08-25T06:28:22.084Z,76.28
2022-08-25T06:29:22.362Z,76.87
2022-08-25T06:30:28.611Z,76.67
2022-08-25T06:31:24.065Z,77.17
2022-08-25T06:32:23.304Z,76.57
2022-08-25T06:33:23.604Z,77.28
2022-08-25T06:34:24.424Z,76.57
2022-08-25T06:35:24.233Z,76.57
2022-08-25T06:36:24.517Z,76.57
2022-08-25T06:37:25.407Z,77.37
2022-08-25T06:38:25.065Z,76.47
2022-08-25T06:39:25.398Z,76.28
2022-08-25T06:40:25.888Z,76.28
2022-08-25T06:41:27.534Z,76.07
2022-08-25T06:42:27.323Z,75.37
2022-08-25T06:43:26.546Z,75.37
2022-08-25T06:44:26.845Z,75.13
2022-08-25T06:45:27.144Z,75.34
2022-08-25T06:46:34.678Z,74.43
2022-08-25T06:47:28.714Z,74.87
2022-08-25T06:48:28.049Z,75.13
2022-08-25T06:49:31.817Z,74.43
2022-08-25T06:50:29.625Z,74.43
2022-08-25T06:51:28.965Z,75.04
2022-08-25T06:52:29.597Z,75.23
2022-08-25T06:53:29.507Z,74.84
2022-08-25T06:54:29.816Z,74.93
2022-08-25T06:55:30.121Z,75.13
2022-08-25T06:56:30.428Z,75.13
2022-08-25T06:57:30.742Z,75.04
2022-08-25T06:58:31.055Z,74.63
2022-08-25T06:59:32.221Z,74.84
2022-08-25T07:00:31.661Z,75.04
2022-08-25T07:01:32.177Z,75.04
2022-08-25T07:02:32.236Z,75.34
2022-08-25T07:03:32.419Z,75.43
2022-08-25T07:04:32.756Z,75.34
2022-08-25T07:05:43.107Z,75.63
2022-08-25T07:06:34.336Z,74.97
2022-08-25T07:07:43.764Z,74.97
2022-08-25T07:08:34.904Z,75.27
2022-08-25T07:09:38.568Z,75.37
2022-08-25T07:10:35.434Z,75.47
2022-08-25T07:11:34.679Z,75.54
2022-08-25T07:12:34.963Z,75.13
2022-08-25T07:13:35.256Z,75.23
2022-08-25T07:14:35.555Z,74.73
2022-08-25T07:15:35.894Z,75.13
2022-08-25T07:16:36.225Z,75.13
2022-08-25T07:17:36.491Z,75.13
2022-08-25T07:18:36.796Z,75.54
2022-08-25T07:19:37.098Z,75.13
2022-08-25T07:20:37.453Z,75.23
2022-08-25T07:21:37.670Z,75.43
2022-08-25T07:22:38.948Z,75.13
2022-08-25T07:23:38.272Z,75.43
2022-08-25T07:24:38.450Z,75.34
2022-08-25T07:25:38.745Z,75.43
2022-08-25T07:26:39.330Z,74.93
2022-08-25T07:27:39.385Z,74.93
2022-08-25T07:28:39.645Z,75.04
2022-08-25T07:29:42.581Z,74.90
2022-08-25T07:30:40.231Z,74.93
2022-08-25T07:31:40.611Z,75.00
2022-08-25T07:32:41.924Z,74.80
2022-08-25T07:33:41.106Z,74.80
2022-08-25T07:34:41.392Z,75.30
2022-08-25T07:35:43.745Z,75.90
2022-08-25T07:36:42.029Z,75.90
2022-08-25T07:37:49.333Z,75.90
2022-08-25T07:38:43.637Z,75.20
2022-08-25T07:39:42.989Z,75.60
2022-08-25T07:40:43.376Z,76.10
2022-08-25T07:41:43.531Z,75.30
2022-08-25T07:42:43.876Z,75.70
2022-08-25T07:43:44.052Z,75.40
2022-08-25T07:44:44.322Z,75.30
2022-08-25T07:45:49.249Z,75.20
2022-08-25T07:46:45.946Z,75.60
2022-08-25T07:47:45.232Z,74.90
2022-08-25T07:48:45.503Z,75.00
2022-08-25T07:49:46.826Z,76.00
2022-08-25T07:50:46.030Z,75.93
2022-08-25T07:52:05.631Z,75.93
2022-08-25T07:52:52.160Z,76.24
2022-08-25T07:53:47.986Z,76.43
2022-08-25T07:54:47.276Z,75.60
2022-08-25T07:55:47.464Z,76.10
2022-08-25T07:56:47.763Z,76.20
2022-08-25T07:57:49.913Z,76.70
2022-08-25T07:58:49.332Z,76.30
2022-08-25T07:59:48.596Z,76.10
2022-08-25T08:00:48.826Z,75.80
2022-08-25T08:01:49.168Z,75.80
2022-08-25T08:02:49.526Z,75.30
2022-08-25T08:03:50.395Z,75.40
2022-08-25T08:04:50.176Z,75.80
2022-08-25T08:05:50.333Z,75.50
2022-08-25T08:06:50.631Z,75.80
2022-08-25T08:07:50.965Z,76.10
2022-08-25T08:08:54.642Z,76.20
2022-08-25T08:10:04.716Z,76.30
2022-08-25T08:11:04.307Z,76.30
2022-08-25T08:11:54.456Z,75.87
2022-08-25T08:12:52.483Z,75.56
2022-08-25T08:13:52.772Z,75.96
2022-08-25T08:14:53.090Z,75.16
2022-08-25T08:15:53.457Z,75.06
2022-08-25T08:16:53.692Z,74.16
2022-08-25T08:17:53.956Z,74.66
2022-08-25T08:18:54.255Z,73.96
2022-08-25T08:19:54.559Z,73.86
2022-08-25T08:20:54.881Z,73.93
2022-08-25T08:21:55.175Z,74.22
2022-08-25T08:22:55.498Z,73.83
2022-08-25T08:23:58.845Z,74.43
2022-08-25T08:24:56.529Z,74.33
2022-08-25T08:25:56.306Z,74.22
2022-08-25T08:26:58.980Z,74.03
2022-08-25T08:27:56.839Z,73.13
2022-08-25T08:28:57.192Z,73.33
2022-08-25T08:29:57.472Z,73.29
2022-08-25T08:30:57.877Z,72.89
2022-08-25T08:31:58.070Z,72.59
2022-08-25T08:33:13.745Z,72.69
2022-08-25T08:33:59.595Z,72.49
2022-08-25T08:34:58.885Z,72.09
2022-08-25T08:35:59.279Z,71.69
2022-08-25T08:36:59.294Z,72.19
2022-08-25T08:37:59.543Z,72.16
2022-08-25T08:38:59.827Z,72.45
2022-08-25T08:40:00.303Z,71.46
2022-08-25T08:41:00.454Z,72.06
2022-08-25T08:42:11.416Z,71.76
2022-08-25T08:43:02.058Z,71.16
2022-08-25T08:44:01.418Z,71.56
2022-08-25T08:45:02.665Z,72.66
2022-08-25T08:46:01.936Z,73.36
2022-08-25T08:47:02.206Z,75.16
2022-08-25T08:48:02.503Z,75.05
2022-08-25T08:49:02.812Z,75.35
2022-08-25T08:50:03.947Z,74.36
2022-08-25T08:51:03.444Z,75.09
2022-08-25T08:52:04.721Z,76.99
2022-08-25T08:53:04.074Z,78.13
2022-08-25T08:54:04.355Z,77.73
2022-08-25T08:55:05.507Z,77.56
2022-08-25T08:56:04.838Z,77.97
2022-08-25T08:57:05.166Z,78.47
2022-08-25T08:58:05.577Z,78.56
2022-08-25T08:59:06.424Z,78.67
2022-08-25T09:00:06.051Z,79.36
2022-08-25T09:01:06.372Z,77.93
2022-08-25T09:02:06.768Z,77.63
2022-08-25T09:03:08.041Z,77.67
2022-08-25T09:04:07.326Z,78.36
2022-08-25T09:05:07.615Z,78.47
2022-08-25T09:06:07.918Z,78.17
2022-08-25T09:07:08.237Z,79.27
2022-08-25T09:08:08.784Z,78.53
2022-08-25T09:09:08.789Z,77.73
2022-08-25T09:10:09.112Z,78.33
2022-08-25T09:11:10.213Z,79.23
2022-08-25T09:12:09.659Z,78.43
2022-08-25T09:13:12.241Z,77.49
2022-08-25T09:14:11.400Z,77.69
2022-08-25T09:15:12.941Z,77.75
2022-08-25T09:16:10.857Z,76.76
2022-08-25T09:17:12.079Z,76.15
2022-08-25T09:18:12.055Z,76.56
2022-08-25T09:19:11.638Z,77.25
2022-08-25T09:20:18.803Z,76.76
2022-08-25T09:21:13.178Z,76.26
2022-08-25T09:22:33.694Z,77.45
2022-08-25T09:23:13.709Z,76.45
2022-08-25T09:24:12.940Z,77.19
2022-08-25T09:25:16.363Z,77.09
2022-08-25T09:26:14.529Z,77.89
2022-08-25T09:27:13.750Z,76.95
2022-08-25T09:28:14.088Z,76.86
2022-08-25T09:29:17.026Z,76.35
2022-08-25T09:30:14.751Z,75.16
2022-08-25T09:31:14.933Z,76.65
2022-08-25T09:32:15.150Z,75.02
2022-08-25T09:33:16.473Z,75.12
2022-08-25T09:34:15.738Z,74.82
2022-08-25T09:35:16.067Z,75.16
2022-08-25T09:36:16.360Z,75.26
2022-08-25T09:37:16.608Z,74.66
2022-08-25T09:38:16.850Z,75.85
2022-08-25T09:39:17.140Z,76.19
2022-08-25T09:40:17.506Z,76.89
2022-08-25T09:41:17.774Z,77.15
2022-08-25T09:42:21.985Z,75.56
2022-08-25T09:43:19.332Z,75.46
2022-08-25T09:44:18.677Z,75.52
2022-08-25T09:45:18.932Z,74.42
2022-08-25T09:46:20.849Z,74.22
2022-08-25T09:47:19.518Z,74.58
2022-08-25T09:48:19.786Z,74.79
2022-08-25T09:49:20.091Z,73.65
2022-08-25T09:50:20.358Z,73.05
2022-08-25T09:51:20.687Z,72.95
2022-08-25T09:52:20.975Z,72.55
2022-08-25T09:53:21.653Z,73.95
2022-08-25T09:54:21.573Z,73.25
2022-08-25T09:55:21.901Z,72.81
2022-08-25T09:56:22.190Z,71.72
2022-08-25T09:57:22.504Z,72.52
2022-08-25T09:58:22.734Z,71.12
2022-08-25T09:59:34.337Z,72.12
2022-08-25T10:00:24.337Z,72.32
2022-08-25T10:01:23.645Z,73.88
2022-08-25T10:02:23.858Z,69.69
2022-08-25T10:03:24.925Z,70.99
2022-08-25T10:04:24.452Z,71.25
2022-08-25T10:05:24.773Z,71.05
2022-08-25T10:06:25.006Z,71.55
2022-08-25T10:07:25.283Z,70.32
2022-08-25T10:08:25.632Z,68.56
2022-08-25T10:09:25.933Z,69.56
2022-08-25T10:10:26.206Z,70.49
2022-08-25T10:11:26.517Z,70.75
2022-08-25T10:12:27.855Z,70.72
2022-08-25T10:13:27.126Z,70.16
2022-08-25T10:14:27.382Z,69.69
2022-08-25T10:15:30.052Z,70.69
2022-08-25T10:16:33.649Z,71.55
2022-08-25T10:17:29.355Z,70.16
2022-08-25T10:18:28.607Z,68.96
2022-08-25T10:19:28.814Z,69.96
2022-08-25T10:20:35.198Z,71.29
2022-08-25T10:21:30.370Z,70.39
2022-08-25T10:22:29.599Z,71.92
2022-08-25T10:23:30.771Z,71.69
2022-08-25T10:24:30.187Z,71.89
2022-08-25T10:25:30.515Z,72.85
2022-08-25T10:26:34.657Z,72.05
2022-08-25T10:27:31.037Z,71.92
2022-08-25T10:28:31.325Z,69.39
2022-08-25T10:29:32.651Z,70.29
2022-08-25T10:30:31.852Z,68.79
2022-08-25T10:31:33.091Z,68.99
2022-08-25T10:32:32.423Z,69.89
2022-08-25T10:33:32.728Z,69.62
2022-08-25T10:34:33.016Z,70.52
2022-08-25T10:35:33.309Z,70.59
2022-08-25T10:36:33.583Z,71.39
2022-08-25T10:37:33.881Z,69.89
2022-08-25T10:38:36.114Z,72.38
2022-08-25T10:39:36.787Z,68.50
2022-08-25T10:40:35.797Z,71.09
2022-08-25T10:41:35.005Z,70.65
2022-08-25T10:42:35.308Z,69.66
2022-08-25T10:43:35.622Z,69.26
2022-08-25T10:44:35.916Z,69.09
2022-08-25T10:45:36.229Z,69.43
2022-08-25T10:46:36.597Z,70.22
2022-08-25T10:47:36.735Z,70.22
2022-08-25T10:48:37.050Z,69.62
2022-08-25T10:49:37.338Z,69.66
2022-08-25T10:50:37.637Z,69.86
2022-08-25T10:51:37.937Z,70.56
2022-08-25T10:52:38.228Z,70.65
2022-08-25T10:53:38.542Z,70.86
2022-08-25T10:54:38.856Z,70.12
2022-08-25T10:55:40.305Z,69.32
2022-08-25T10:56:40.696Z,69.39
2022-08-25T10:57:39.746Z,68.99
2022-08-25T10:58:39.925Z,69.36
2022-08-25T10:59:40.227Z,68.13
2022-08-25T11:00:40.506Z,67.00
2022-08-25T11:01:43.942Z,65.12
2022-08-25T11:02:41.396Z,65.22
2022-08-25T11:03:41.427Z,64.72
2022-08-25T11:04:42.193Z,65.42
2022-08-25T11:05:42.020Z,65.31
2022-08-25T11:06:42.216Z,64.62
2022-08-25T11:07:42.575Z,62.10
2022-08-25T11:08:42.839Z,62.57
2022-08-25T11:09:43.134Z,62.87
2022-08-25T11:10:44.182Z,63.43
2022-08-25T11:11:43.649Z,62.54
2022-08-25T11:12:43.977Z,63.34
2022-08-25T11:13:44.266Z,62.54
2022-08-25T11:14:44.560Z,61.68
2022-08-25T11:16:06.270Z,62.37
2022-08-25T11:16:48.370Z,62.45
2022-08-25T11:17:45.480Z,62.34
2022-08-25T11:18:45.708Z,60.93
2022-08-25T11:19:45.978Z,62.29
2022-08-25T11:20:46.291Z,60.10
2022-08-25T11:21:46.594Z,60.17
2022-08-25T11:22:46.888Z,59.88
2022-08-25T11:23:47.152Z,58.29
2022-08-25T11:24:47.491Z,59.08
2022-08-25T11:25:47.779Z,60.07
2022-08-25T11:26:48.087Z,61.43
2022-08-25T11:27:48.375Z,58.06
2022-08-25T11:28:48.710Z,57.97
2022-08-25T11:29:48.998Z,59.03
2022-08-25T11:30:49.334Z,57.64
2022-08-25T11:31:52.987Z,58.63
2022-08-25T11:32:52.049Z,57.44
2022-08-25T11:33:50.126Z,59.32
2022-08-25T11:34:50.315Z,57.97
2022-08-25T11:35:50.613Z,56.77
2022-08-25T11:36:50.939Z,58.46
2022-08-25T11:37:51.260Z,57.57
2022-08-25T11:38:51.576Z,58.46
2022-08-25T11:39:51.932Z,58.86
2022-08-25T11:40:52.142Z,56.38
2022-08-25T11:41:54.219Z,57.17
2022-08-25T11:42:52.676Z,57.27
2022-08-25T11:43:52.971Z,56.57
2022-08-25T11:44:55.118Z,57.44
2022-08-25T11:45:54.345Z,57.04
2022-08-25T11:46:53.871Z,57.41
2022-08-25T11:47:54.170Z,56.95
2022-08-25T11:48:54.459Z,57.04
2022-08-25T11:49:54.757Z,54.94
2022-08-25T11:50:55.000Z,55.53
2022-08-25T11:51:55.324Z,56.00
2022-08-25T11:52:56.680Z,54.91
2022-08-25T11:53:55.926Z,53.89
2022-08-25T11:54:56.236Z,53.89
2022-08-25T11:55:56.518Z,54.98
2022-08-25T11:56:56.842Z,50.93
2022-08-25T11:57:57.155Z,52.31
2022-08-25T11:58:57.444Z,50.24
2022-08-25T11:59:57.712Z,49.25
2022-08-25T12:00:58.005Z,49.05
2022-08-25T12:01:58.264Z,47.77
2022-08-25T12:03:01.632Z,50.53
2022-08-25T12:03:58.978Z,50.53
2022-08-25T12:04:59.411Z,48.95
2022-08-25T12:05:59.434Z,47.86
2022-08-25T12:06:59.732Z,47.86
2022-08-25T12:08:00.103Z,50.13
2022-08-25T12:09:00.513Z,50.81
2022-08-25T12:10:00.577Z,52.76
2022-08-25T12:11:00.845Z,50.26
2022-08-25T12:12:01.184Z,47.60
2022-08-25T12:13:01.489Z,49.08
2022-08-25T12:14:01.782Z,46.83
2022-08-25T12:15:02.058Z,50.09
2022-08-25T12:16:04.148Z,48.71
2022-08-25T12:17:02.756Z,49.10
2022-08-25T12:18:07.276Z,48.21
2022-08-25T12:19:04.223Z,48.51
2022-08-25T12:20:03.475Z,49.60
2022-08-25T12:21:03.781Z,49.49
2022-08-25T12:22:04.288Z,49.13
2022-08-25T12:23:04.348Z,49.91
2022-08-25T12:24:04.641Z,50.81
2022-08-25T12:25:04.909Z,52.36
2022-08-25T12:26:05.198Z,51.05
2022-08-25T12:27:06.279Z,50.83
2022-08-25T12:28:09.482Z,48.44
2022-08-25T12:29:07.436Z,48.34
2022-08-25T12:30:06.397Z,47.94
2022-08-25T12:31:06.774Z,47.87
2022-08-25T12:32:07.026Z,47.67
2022-08-25T12:33:07.364Z,46.88
2022-08-25T12:34:07.662Z,49.05
2022-08-25T12:35:07.961Z,49.05
2022-08-25T12:36:08.277Z,48.36
2022-08-25T12:37:08.548Z,46.78
2022-08-25T12:38:08.846Z,46.88
2022-08-25T12:39:09.138Z,46.51
2022-08-25T12:40:09.451Z,46.61
2022-08-25T12:41:09.681Z,48.19
2022-08-25T12:42:09.980Z,46.22
2022-08-25T12:43:10.227Z,47.08
2022-08-25T12:44:10.527Z,48.63
2022-08-25T12:45:10.806Z,46.86
2022-08-25T12:46:11.248Z,48.32
2022-08-25T12:47:11.356Z,48.71
2022-08-25T12:48:11.640Z,48.32
2022-08-25T12:49:11.965Z,46.74
2022-08-25T12:50:12.288Z,48.61
2022-08-25T12:51:12.647Z,46.84
2022-08-25T12:52:12.905Z,47.94
2022-08-25T12:53:13.214Z,49.22
2022-08-25T12:54:16.008Z,50.12
2022-08-25T12:55:14.829Z,48.75
2022-08-25T12:56:14.089Z,49.05
2022-08-25T12:57:14.418Z,48.63
2022-08-25T12:58:14.721Z,48.56
2022-08-25T12:59:14.942Z,49.65
2022-08-25T13:00:15.261Z,49.15
2022-08-25T13:01:17.596Z,48.04
2022-08-25T13:02:16.962Z,49.90
2022-08-25T13:03:16.292Z,47.16
2022-08-25T13:04:16.503Z,48.93
2022-08-25T13:05:16.758Z,47.82
2022-08-25T13:06:17.069Z,48.81
2022-08-25T13:07:17.373Z,50.07
2022-08-25T13:08:17.615Z,47.19
2022-08-25T13:09:17.910Z,45.98
2022-08-25T13:10:18.152Z,47.66
2022-08-25T13:11:20.200Z,44.40
2022-08-25T13:12:18.710Z,46.47
2022-08-25T13:13:18.961Z,45.68
2022-08-25T13:14:19.275Z,45.76
2022-08-25T13:15:19.464Z,47.14
2022-08-25T13:16:19.860Z,47.53
2022-08-25T13:17:20.104Z,47.14
2022-08-25T13:18:20.385Z,45.67
2022-08-25T13:19:21.154Z,43.20
2022-08-25T13:20:20.922Z,45.27
2022-08-25T13:21:21.181Z,45.27
2022-08-25T13:22:21.491Z,44.58
2022-08-25T13:23:21.764Z,45.94
2022-08-25T13:24:22.055Z,45.72
2022-08-25T13:25:23.138Z,44.34
2022-08-25T13:26:22.605Z,45.42
2022-08-25T13:27:23.069Z,43.16
2022-08-25T13:28:23.147Z,42.38
2022-08-25T13:29:23.462Z,42.47
2022-08-25T13:30:23.755Z,44.66
2022-08-25T13:31:24.084Z,46.60
2022-08-25T13:32:24.408Z,43.83
2022-08-25T13:33:25.088Z,43.85
2022-08-25T13:34:34.232Z,42.86
2022-08-25T13:35:30.328Z,46.43
2022-08-25T13:36:26.585Z,44.88
2022-08-25T13:37:25.918Z,45.96
2022-08-25T13:38:26.223Z,46.45
2022-08-25T13:39:46.001Z,46.94
2022-08-25T13:40:27.895Z,47.73
2022-08-25T13:41:29.238Z,45.74
2022-08-25T13:42:29.029Z,45.23
2022-08-25T13:43:27.852Z,45.81
2022-08-25T13:44:28.068Z,43.55
2022-08-25T13:45:28.438Z,44.54
2022-08-25T13:46:28.735Z,43.85
2022-08-25T13:47:29.019Z,45.52
2022-08-25T13:48:29.205Z,44.73
2022-08-25T13:49:29.484Z,43.99
2022-08-25T13:50:29.798Z,44.80
2022-08-25T13:51:31.286Z,46.45
2022-08-25T13:52:30.284Z,43.99
2022-08-25T13:53:31.752Z,45.17
2022-08-25T13:54:30.855Z,45.76
2022-08-25T13:55:31.121Z,44.70
2022-08-25T13:56:38.541Z,45.98
2022-08-25T13:57:32.630Z,44.09
2022-08-25T13:58:44.364Z,44.78
2022-08-25T13:59:33.291Z,44.88
2022-08-25T14:00:32.570Z,45.27
2022-08-25T14:01:49.210Z,44.36
2022-08-25T14:02:34.188Z,45.15
2022-08-25T14:03:33.563Z,45.84
2022-08-25T14:04:33.655Z,45.15
2022-08-25T14:05:36.084Z,44.26
2022-08-25T14:06:34.318Z,45.94
2022-08-25T14:07:34.799Z,44.46
2022-08-25T14:08:34.874Z,46.43
2022-08-25T14:09:35.208Z,45.25
2022-08-25T14:10:35.518Z,45.54
2022-08-25T14:11:35.781Z,45.72
2022-08-25T14:12:36.074Z,46.03
2022-08-25T14:13:36.397Z,45.74
2022-08-25T14:14:36.646Z,46.75
2022-08-25T14:15:36.980Z,46.45
2022-08-25T14:16:37.434Z,46.35
2022-08-25T14:17:40.103Z,45.67
2022-08-25T14:18:37.794Z,45.35
2022-08-25T14:19:38.089Z,45.45
2022-08-25T14:20:38.412Z,45.62
2022-08-25T14:21:40.980Z,45.13
2022-08-25T14:22:38.989Z,46.13
2022-08-25T14:23:39.421Z,48.08
2022-08-25T14:24:40.959Z,44.62
2022-08-25T14:25:40.786Z,44.62
2022-08-25T14:26:40.220Z,43.90
2022-08-25T14:27:56.911Z,43.32
2022-08-25T14:28:41.828Z,44.98
2022-08-25T14:29:41.398Z,45.87
2022-08-25T14:30:43.506Z,45.48
2022-08-25T14:31:42.705Z,44.37
2022-08-25T14:32:41.898Z,43.98
2022-08-25T14:33:42.131Z,43.00
2022-08-25T14:34:42.468Z,43.96
2022-08-25T14:35:42.813Z,44.06
2022-08-25T14:36:43.021Z,43.57
2022-08-25T14:37:43.286Z,43.08
2022-08-25T14:38:44.143Z,45.06
2022-08-25T14:39:44.148Z,44.10
2022-08-25T14:40:44.217Z,45.48
2022-08-25T14:41:47.426Z,47.17
2022-08-25T14:42:45.706Z,48.27
2022-08-25T14:43:45.036Z,46.50
2022-08-25T14:44:45.316Z,47.19
2022-08-25T14:45:45.947Z,46.80
2022-08-25T14:46:45.924Z,48.00
2022-08-25T14:47:46.251Z,47.91
2022-08-25T14:48:46.514Z,48.18
2022-08-25T14:49:46.767Z,48.18
2022-08-25T14:50:47.000Z,47.07
2022-08-25T14:51:47.269Z,47.47
2022-08-25T14:52:47.594Z,45.89
2022-08-25T14:53:47.837Z,46.38
2022-08-25T14:54:48.149Z,45.79
2022-08-25T14:55:48.428Z,46.11
2022-08-25T14:56:48.721Z,46.97
2022-08-25T14:57:49.029Z,45.40
2022-08-25T14:58:54.009Z,45.89